createdAt,value
2023-03-26T00:00:54.471Z,1.85
2023-03-26T00:03:41.028Z,1.58
2023-03-26T00:06:29.030Z,1.50
2023-03-26T00:09:16.256Z,1.58
2023-03-26T00:12:02.495Z,1.10
2023-03-26T00:14:48.785Z,0.88
2023-03-26T00:17:35.123Z,1.30
2023-03-26T00:20:21.549Z,0.68
2023-03-26T00:23:08.999Z,1.67
2023-03-26T00:25:56.493Z,1.10
2023-03-26T00:28:42.684Z,1.05
2023-03-26T00:31:29.063Z,0.65
2023-03-26T00:34:18.651Z,0.98
2023-03-26T00:37:05.368Z,1.50
2023-03-26T00:39:51.723Z,1.27
2023-03-26T00:42:38.542Z,1.23
2023-03-26T00:45:24.379Z,0.63
2023-03-26T00:48:10.805Z,0.60
2023-03-26T00:50:57.494Z,1.73
2023-03-26T00:53:47.551Z,1.95
2023-03-26T00:56:33.834Z,0.73
2023-03-26T00:59:22.602Z,1.52
2023-03-26T01:02:11.758Z,0.77
2023-03-26T01:05:03.006Z,1.50
2023-03-26T01:07:49.270Z,0.50
2023-03-26T01:10:38.901Z,1.67
2023-03-26T01:13:26.191Z,1.60
2023-03-26T01:16:21.472Z,0.93
2023-03-26T01:19:13.086Z,1.05
2023-03-26T01:22:00.982Z,1.40
2023-03-26T01:24:54.012Z,1.27
2023-03-26T01:28:09.081Z,0.68
2023-03-26T01:31:17.462Z,1.35
2023-03-26T01:34:03.465Z,1.30
2023-03-26T01:37:28.397Z,1.30
2023-03-26T01:40:43.652Z,1.05
2023-03-26T01:43:30.605Z,2.00
2023-03-26T01:46:17.983Z,1.55
2023-03-26T01:49:05.650Z,1.30
2023-03-26T01:51:53.062Z,1.20
2023-03-26T01:54:41.005Z,2.38
2023-03-26T01:57:36.864Z,2.38
2023-03-26T02:00:46.200Z,0.50
2023-03-26T02:03:40.096Z,3.00
2023-03-26T02:06:31.552Z,0.70
2023-03-26T02:09:20.729Z,2.47
2023-03-26T02:12:07.208Z,3.25
2023-03-26T02:14:53.356Z,3.70
2023-03-26T02:17:40.563Z,3.83
2023-03-26T02:20:30.415Z,2.90
2023-03-26T02:23:16.959Z,2.17
2023-03-26T02:26:06.654Z,2.55
2023-03-26T02:28:53.997Z,2.58
2023-03-26T02:31:40.311Z,2.05
2023-03-26T02:34:26.437Z,1.45
2023-03-26T02:37:13.660Z,1.58
2023-03-26T02:40:01.952Z,0.35
2023-03-26T02:42:53.885Z,1.60
2023-03-26T02:45:43.835Z,0.68
2023-03-26T02:48:59.148Z,0.60
2023-03-26T02:51:45.655Z,0.40
2023-03-26T02:54:44.698Z,1.60
2023-03-26T02:57:36.895Z,1.52
2023-03-26T03:00:50.943Z,1.27
2023-03-26T03:03:51.860Z,1.52
2023-03-26T03:06:57.702Z,1.95
2023-03-26T03:09:44.609Z,3.03
2023-03-26T03:12:49.142Z,2.90
2023-03-26T03:15:35.314Z,3.22
2023-03-26T03:18:21.870Z,1.20
2023-03-26T03:21:07.964Z,4.15
2023-03-26T03:23:55.678Z,3.88
2023-03-26T03:30:13.415Z,1.30
2023-03-26T03:33:06.269Z,3.42
2023-03-26T03:35:53.925Z,6.82
2023-03-26T03:38:41.478Z,7.70
2023-03-26T03:41:29.769Z,7.28
2023-03-26T03:44:16.991Z,5.32
2023-03-26T03:47:03.436Z,3.17
2023-03-26T03:49:50.236Z,3.85
2023-03-26T03:52:36.242Z,2.22
2023-03-26T03:55:24.343Z,3.65
2023-03-26T03:58:14.739Z,1.42
2023-03-26T04:01:04.488Z,1.98
2023-03-26T04:04:07.395Z,1.40
2023-03-26T04:07:09.146Z,0.97
2023-03-26T04:10:16.442Z,2.78
2023-03-26T04:13:37.716Z,2.90
2023-03-26T04:16:35.054Z,4.05
2023-03-26T04:19:21.366Z,4.28
2023-03-26T04:22:07.689Z,3.25
2023-03-26T04:24:59.265Z,2.03
2023-03-26T04:27:51.761Z,4.43
2023-03-26T04:30:53.865Z,5.72
2023-03-26T04:34:00.252Z,5.15
2023-03-26T04:36:46.934Z,1.55
2023-03-26T04:39:36.394Z,4.80
2023-03-26T04:42:46.499Z,7.25
2023-03-26T04:45:46.057Z,4.38
2023-03-26T04:48:32.834Z,15.80
2023-03-26T04:51:22.085Z,10.90
2023-03-26T04:54:08.907Z,8.15
2023-03-26T04:57:21.373Z,3.38
2023-03-26T05:00:29.412Z,1.17
2023-03-26T05:03:21.249Z,31.40
2023-03-26T05:06:11.065Z,13.93
2023-03-26T05:08:57.080Z,2.72
2023-03-26T05:12:03.602Z,3.88
2023-03-26T05:14:58.457Z,3.90
2023-03-26T05:17:57.280Z,0.70
2023-03-26T05:20:59.312Z,2.35
2023-03-26T05:23:46.978Z,2.47
2023-03-26T05:26:40.925Z,2.35
2023-03-26T05:29:27.213Z,2.75
2023-03-26T05:32:14.550Z,3.33
2023-03-26T05:35:01.080Z,3.05
2023-03-26T05:37:49.747Z,3.78
2023-03-26T05:40:37.056Z,4.47
2023-03-26T05:43:25.162Z,3.58
2023-03-26T05:46:23.399Z,5.70
2023-03-26T05:49:09.880Z,3.70
2023-03-26T05:51:56.497Z,4.88
2023-03-26T05:55:22.131Z,3.30
2023-03-26T05:58:28.423Z,3.20
2023-03-26T06:01:34.771Z,0.70
2023-03-26T06:04:47.430Z,4.90
2023-03-26T06:08:02.881Z,2.28
2023-03-26T06:11:00.020Z,3.70
2023-03-26T06:13:47.864Z,3.10
2023-03-26T06:16:34.073Z,2.40
2023-03-26T06:19:45.928Z,2.80
2023-03-26T06:22:41.512Z,3.03
2023-03-26T06:25:42.263Z,1.88
2023-03-26T06:28:48.536Z,3.13
2023-03-26T06:32:06.172Z,1.58
2023-03-26T06:35:15.191Z,2.38
2023-03-26T06:38:01.252Z,2.20
2023-03-26T06:40:48.594Z,1.95
2023-03-26T06:43:54.903Z,1.90
2023-03-26T06:47:03.745Z,2.10
2023-03-26T06:50:11.662Z,2.47
2023-03-26T06:53:20.748Z,3.03
2023-03-26T06:56:15.699Z,2.00
2023-03-26T06:59:33.769Z,2.22
2023-03-26T07:02:38.670Z,1.80
2023-03-26T07:05:43.302Z,2.63
2023-03-26T07:08:30.998Z,2.67
2023-03-26T07:15:07.445Z,2.00
2023-03-26T07:18:25.466Z,1.95
2023-03-26T07:21:12.522Z,2.78
2023-03-26T07:23:58.860Z,2.35
2023-03-26T07:26:51.169Z,1.73
2023-03-26T07:29:45.063Z,1.60
2023-03-26T07:33:09.233Z,2.70
2023-03-26T07:36:23.990Z,1.88
2023-03-26T07:39:34.362Z,1.48
2023-03-26T07:42:39.254Z,1.60
2023-03-26T07:45:44.249Z,1.60
2023-03-26T07:48:43.455Z,1.70
2023-03-26T07:51:33.963Z,1.30
2023-03-26T07:54:34.988Z,1.23
2023-03-26T07:57:52.383Z,1.60
2023-03-26T08:01:03.904Z,1.15
2023-03-26T08:04:23.657Z,1.98
2023-03-26T08:07:51.791Z,1.67
2023-03-26T08:10:47.713Z,1.77
2023-03-26T08:13:36.783Z,1.10
2023-03-26T08:16:23.287Z,1.33
2023-03-26T08:19:21.541Z,2.70
2023-03-26T08:22:13.902Z,1.30
2023-03-26T08:25:18.990Z,1.00
2023-03-26T08:28:20.083Z,1.30
2023-03-26T08:31:08.219Z,0.98
2023-03-26T08:33:54.347Z,0.95
2023-03-26T08:36:40.720Z,1.02
2023-03-26T08:39:27.001Z,3.17
2023-03-26T08:42:20.550Z,5.80
2023-03-26T08:45:44.051Z,10.68
2023-03-26T08:48:36.287Z,0.98
2023-03-26T08:51:31.639Z,1.10
2023-03-26T08:54:41.143Z,9.65
2023-03-26T08:57:36.350Z,3.03
2023-03-26T09:00:35.110Z,8.63
2023-03-26T09:03:28.921Z,1.98
2023-03-26T09:09:06.806Z,4.63
2023-03-26T09:12:12.818Z,1.40
2023-03-26T09:15:14.171Z,2.15
2023-03-26T09:18:26.499Z,2.73
2023-03-26T09:21:12.698Z,1.15
2023-03-26T09:24:16.684Z,3.15
2023-03-26T09:27:09.036Z,1.85
2023-03-26T09:30:14.006Z,1.42
2023-03-26T09:33:18.500Z,1.13
2023-03-26T09:36:14.078Z,1.20
2023-03-26T09:39:09.142Z,0.70
2023-03-26T09:41:55.466Z,0.60
2023-03-26T09:44:44.794Z,1.58
2023-03-26T09:47:31.205Z,0.65
2023-03-26T09:50:20.367Z,1.20
2023-03-26T09:53:15.224Z,0.60
2023-03-26T09:56:30.463Z,3.90
2023-03-26T09:59:39.036Z,0.85
2023-03-26T10:02:45.405Z,1.80
2023-03-26T10:05:41.565Z,0.73
2023-03-26T10:08:48.370Z,0.75
2023-03-26T10:11:48.488Z,2.00
2023-03-26T10:14:50.403Z,1.38
2023-03-26T10:17:57.860Z,0.80
2023-03-26T10:20:49.094Z,1.50
2023-03-26T10:23:45.371Z,11.48
2023-03-26T10:26:37.552Z,0.90
2023-03-26T10:29:42.712Z,2.80
2023-03-26T10:33:01.422Z,2.15
2023-03-26T10:36:12.509Z,1.75
2023-03-26T10:39:01.303Z,1.83
2023-03-26T10:41:54.645Z,1.77
2023-03-26T10:45:13.501Z,3.80
2023-03-26T10:48:10.926Z,1.83
2023-03-26T10:51:15.633Z,1.58
2023-03-26T10:54:06.442Z,2.00
2023-03-26T10:56:52.915Z,0.98
2023-03-26T10:59:39.292Z,1.20
2023-03-26T11:02:30.664Z,1.58
2023-03-26T11:05:20.100Z,2.58
2023-03-26T11:08:31.233Z,0.60
2023-03-26T11:11:28.510Z,0.75
2023-03-26T11:14:34.413Z,1.15
2023-03-26T11:17:39.308Z,1.48
2023-03-26T11:20:27.476Z,2.45
2023-03-26T11:23:27.494Z,4.05
2023-03-26T11:26:38.313Z,0.95
2023-03-26T11:29:32.271Z,1.08
2023-03-26T11:32:27.444Z,0.80
2023-03-26T11:35:40.858Z,0.77
2023-03-26T11:38:40.305Z,1.10
2023-03-26T11:41:32.646Z,0.88
2023-03-26T11:45:00.854Z,0.55
2023-03-26T11:48:00.405Z,1.65
2023-03-26T11:50:49.543Z,1.00
2023-03-26T11:53:39.154Z,0.98
2023-03-26T11:56:29.624Z,1.48
2023-03-26T11:59:19.936Z,1.45
2023-03-26T12:02:11.816Z,0.73
2023-03-26T12:05:26.803Z,0.60
2023-03-26T12:08:27.497Z,1.00
2023-03-26T12:11:14.532Z,0.70
2023-03-26T12:14:02.290Z,0.60
2023-03-26T12:16:58.641Z,0.70
2023-03-26T12:19:45.748Z,1.15
2023-03-26T12:22:43.441Z,1.00
2023-03-26T12:25:31.541Z,2.65
2023-03-26T12:28:18.585Z,0.60
2023-03-26T12:31:05.661Z,0.90
2023-03-26T12:34:07.650Z,1.40
2023-03-26T12:36:55.688Z,1.20
2023-03-26T12:40:10.817Z,2.78
2023-03-26T12:44:46.499Z,1.35
2023-03-26T12:47:57.272Z,1.40
2023-03-26T12:49:28.512Z,1.00
2023-03-26T12:52:23.365Z,0.80
2023-03-26T12:55:22.830Z,0.85
2023-03-26T12:58:18.756Z,0.90
2023-03-26T13:01:14.132Z,3.35
2023-03-26T13:04:00.677Z,2.35
2023-03-26T13:06:59.965Z,0.63
2023-03-26T13:09:48.065Z,0.90
2023-03-26T13:12:34.577Z,1.00
2023-03-26T13:15:22.096Z,0.82
2023-03-26T13:18:31.727Z,0.90
2023-03-26T13:21:37.339Z,1.13
2023-03-26T13:24:34.950Z,0.80
2023-03-26T13:27:24.324Z,0.93
2023-03-26T13:30:16.783Z,1.77
2023-03-26T13:33:32.514Z,1.92
2023-03-26T13:36:24.535Z,1.08
2023-03-26T13:39:20.483Z,2.83
2023-03-26T13:42:07.361Z,1.50
2023-03-26T13:45:07.970Z,1.90
2023-03-26T13:47:55.755Z,1.15
2023-03-26T13:50:44.096Z,0.70
2023-03-26T13:53:53.419Z,0.70
2023-03-26T13:56:43.394Z,0.80
2023-03-26T13:59:37.893Z,1.08
2023-03-26T14:02:59.140Z,1.30
2023-03-26T14:05:48.626Z,2.05
2023-03-26T14:08:46.066Z,0.60
2023-03-26T14:11:44.079Z,0.80
2023-03-26T14:14:49.116Z,2.58
2023-03-26T14:17:41.442Z,1.33
2023-03-26T14:20:27.592Z,2.03
2023-03-26T14:23:37.066Z,1.23
2023-03-26T14:26:45.890Z,1.67
2023-03-26T14:29:56.780Z,0.73
2023-03-26T14:32:58.766Z,0.60
2023-03-26T14:35:55.823Z,0.60
2023-03-26T14:38:44.664Z,0.73
2023-03-26T14:41:34.180Z,0.82
2023-03-26T14:44:23.566Z,1.00
2023-03-26T14:47:16.189Z,1.13
2023-03-26T14:50:21.703Z,0.52
2023-03-26T14:53:28.261Z,0.60
2023-03-26T14:56:34.428Z,0.57
2023-03-26T14:59:40.886Z,0.70
2023-03-26T15:02:26.910Z,0.60
2023-03-26T15:05:16.090Z,0.82
2023-03-26T15:08:14.596Z,1.10
2023-03-26T15:11:14.894Z,0.75
2023-03-26T15:14:19.804Z,0.40
2023-03-26T15:17:12.716Z,0.52
2023-03-26T15:19:58.585Z,1.00
2023-03-26T15:22:53.480Z,0.70
2023-03-26T15:26:03.010Z,0.50
2023-03-26T15:28:52.833Z,1.10
2023-03-26T15:31:47.682Z,0.40
2023-03-26T15:34:43.162Z,0.55
2023-03-26T15:37:47.622Z,0.60
2023-03-26T15:40:54.642Z,0.75
2023-03-26T15:46:54.825Z,1.02
2023-03-26T15:49:42.789Z,0.98
2023-03-26T15:52:29.022Z,0.68
2023-03-26T15:55:27.817Z,0.50
2023-03-26T15:58:34.707Z,0.52
2023-03-26T16:01:34.050Z,0.60
2023-03-26T16:04:29.489Z,0.80
2023-03-26T16:07:34.328Z,1.05
2023-03-26T16:10:29.916Z,1.50
2023-03-26T16:13:34.498Z,2.13
2023-03-26T16:16:22.667Z,2.28
2023-03-26T16:19:21.953Z,1.40
2023-03-26T16:22:12.949Z,1.40
2023-03-26T16:25:28.027Z,1.25
2023-03-26T16:28:29.489Z,1.63
2023-03-26T16:31:36.831Z,1.88
2023-03-26T16:34:26.490Z,2.50
2023-03-26T16:41:00.122Z,1.92
2023-03-26T16:43:55.781Z,11.73
2023-03-26T16:46:53.609Z,15.05
2023-03-26T16:53:38.706Z,7.35
2023-03-26T16:56:31.594Z,7.55
2023-03-26T16:59:40.092Z,7.97
2023-03-26T17:02:35.173Z,8.65
2023-03-26T17:05:34.388Z,7.43
2023-03-26T17:08:36.227Z,7.57
2023-03-26T17:11:56.660Z,8.57
2023-03-26T17:15:00.601Z,6.90
2023-03-26T17:18:12.584Z,4.60
2023-03-26T17:21:08.546Z,5.97
2023-03-26T17:24:02.093Z,2.80
2023-03-26T17:26:59.714Z,5.20
2023-03-26T17:29:59.182Z,5.68
2023-03-26T17:33:06.463Z,5.10
2023-03-26T17:36:11.456Z,8.02
2023-03-26T17:39:00.240Z,13.13
2023-03-26T17:41:52.899Z,9.10
2023-03-26T17:44:55.917Z,12.20
2023-03-26T17:48:05.380Z,10.75
2023-03-26T17:50:52.371Z,6.28
2023-03-26T17:53:43.710Z,5.85
2023-03-26T17:56:34.333Z,7.10
2023-03-26T17:59:23.681Z,7.07
2023-03-26T18:02:16.528Z,7.55
2023-03-26T18:05:08.200Z,7.45
2023-03-26T18:07:54.700Z,6.75
2023-03-26T18:10:46.557Z,6.47
2023-03-26T18:13:36.044Z,5.88
2023-03-26T18:16:26.982Z,4.95
2023-03-26T18:19:22.169Z,5.18
2023-03-26T18:22:17.913Z,4.72
2023-03-26T18:25:07.649Z,5.97
2023-03-26T18:28:01.880Z,5.53
2023-03-26T18:30:53.072Z,5.82
2023-03-26T18:33:48.976Z,3.83
2023-03-26T18:36:35.251Z,1.63
2023-03-26T18:39:21.646Z,3.33
2023-03-26T18:42:22.751Z,2.88
2023-03-26T18:47:58.552Z,7.43
2023-03-26T18:54:08.495Z,5.32
2023-03-26T18:56:55.216Z,9.95
2023-03-26T18:59:45.398Z,14.63
2023-03-26T19:02:32.085Z,5.30
2023-03-26T19:05:22.290Z,5.38
2023-03-26T19:08:09.478Z,9.38
2023-03-26T19:10:57.882Z,29.08
2023-03-26T19:13:44.220Z,47.97
2023-03-26T19:16:34.277Z,30.05
2023-03-26T19:19:27.832Z,22.83
2023-03-26T19:22:14.698Z,21.75
2023-03-26T19:25:05.493Z,18.55
2023-03-26T19:27:53.053Z,11.13
2023-03-26T19:30:40.884Z,6.38
2023-03-26T19:33:33.638Z,6.68
2023-03-26T19:36:30.579Z,11.23
2023-03-26T19:39:24.209Z,12.95
2023-03-26T19:42:24.082Z,19.95
2023-03-26T19:45:15.837Z,22.05
2023-03-26T19:48:14.417Z,23.17
2023-03-26T19:51:04.828Z,18.55
2023-03-26T19:53:55.051Z,25.08
2023-03-26T19:57:01.362Z,20.30
2023-03-26T19:59:50.961Z,16.02
2023-03-26T20:02:37.548Z,15.15
2023-03-26T20:05:26.814Z,18.55
2023-03-26T20:08:16.399Z,19.17
2023-03-26T20:11:02.264Z,31.98
2023-03-26T20:13:54.668Z,22.70
2023-03-26T20:16:48.193Z,17.05
2023-03-26T20:19:39.481Z,16.92
2023-03-26T20:22:29.251Z,14.77
2023-03-26T20:25:34.304Z,11.07
2023-03-26T20:28:20.901Z,13.63
2023-03-26T20:31:09.990Z,14.00
2023-03-26T20:33:57.706Z,12.77
2023-03-26T20:36:44.234Z,9.15
2023-03-26T20:39:31.101Z,5.05
2023-03-26T20:42:20.513Z,17.65
2023-03-26T20:45:14.796Z,12.65
2023-03-26T20:48:03.032Z,5.90
2023-03-26T20:50:50.939Z,12.80
2023-03-26T20:53:37.374Z,7.38
2023-03-26T20:56:23.784Z,10.30
2023-03-26T20:59:11.926Z,8.60
2023-03-26T21:01:59.704Z,4.50
2023-03-26T21:04:49.096Z,1.88
2023-03-26T21:07:35.392Z,5.18
2023-03-26T21:10:21.952Z,4.43
2023-03-26T21:13:11.505Z,3.95
2023-03-26T21:15:59.933Z,4.28
2023-03-26T21:18:49.965Z,6.13
2023-03-26T21:21:47.066Z,3.42
2023-03-26T21:24:49.798Z,2.25
2023-03-26T21:27:55.682Z,1.48
2023-03-26T21:30:50.445Z,0.93
2023-03-26T21:33:37.143Z,0.85
2023-03-26T21:36:23.565Z,1.60
2023-03-26T21:39:11.555Z,1.85
2023-03-26T21:42:05.027Z,3.20
2023-03-26T21:44:53.886Z,2.60
2023-03-26T21:47:45.664Z,2.05
2023-03-26T21:50:32.835Z,1.50
2023-03-26T21:53:19.367Z,1.85
2023-03-26T21:56:30.579Z,3.65
2023-03-26T21:59:19.719Z,1.02
2023-03-26T22:02:24.145Z,0.52
2023-03-26T22:05:15.230Z,1.00
2023-03-26T22:08:05.919Z,1.70
2023-03-26T22:10:52.494Z,1.40
2023-03-26T22:13:38.948Z,2.60
2023-03-26T22:16:25.977Z,4.22
2023-03-26T22:19:14.286Z,4.75
2023-03-26T22:22:02.095Z,3.50
2023-03-26T22:24:50.609Z,3.13
2023-03-26T22:27:44.388Z,4.15
2023-03-26T22:30:31.303Z,0.55
2023-03-26T22:33:20.762Z,4.53
2023-03-26T22:36:22.422Z,4.57
2023-03-26T22:39:09.518Z,2.50
2023-03-26T22:41:55.602Z,0.90
2023-03-26T22:44:42.356Z,4.80
2023-03-26T22:47:33.902Z,6.05
2023-03-26T22:50:20.194Z,4.38
2023-03-26T22:53:07.540Z,6.15
2023-03-26T22:56:05.406Z,3.20
2023-03-26T22:58:51.892Z,4.88
2023-03-26T23:01:39.226Z,3.88
2023-03-26T23:04:32.451Z,7.00
2023-03-26T23:07:19.189Z,6.88
2023-03-26T23:10:06.957Z,5.15
2023-03-26T23:12:52.948Z,1.50
2023-03-26T23:15:40.895Z,4.45
2023-03-26T23:18:26.966Z,5.65
2023-03-26T23:21:18.555Z,4.55
2023-03-26T23:24:05.443Z,5.20
2023-03-26T23:26:52.209Z,4.30
2023-03-26T23:29:38.311Z,4.72
2023-03-26T23:32:25.764Z,0.80
2023-03-26T23:35:11.718Z,0.80
2023-03-26T23:37:57.901Z,2.10
2023-03-26T23:40:44.862Z,2.75
2023-03-26T23:43:53.571Z,1.50
2023-03-26T23:46:44.356Z,2.42
2023-03-26T23:49:30.444Z,1.27
2023-03-26T23:52:16.836Z,0.70
2023-03-26T23:55:02.662Z,1.25
2023-03-26T23:57:48.819Z,1.85
